createdAt,value
2019-02-05T00:01:36.183Z,-3.30
2019-02-05T00:04:06.886Z,-3.30
2019-02-05T00:06:37.003Z,-3.60
2019-02-05T00:09:11.389Z,-3.40
2019-02-05T00:11:41.708Z,-3.30
2019-02-05T00:14:12.320Z,-3.10
2019-02-05T00:16:42.980Z,-3.40
2019-02-05T00:19:13.231Z,-3.60
2019-02-05T00:21:43.615Z,-3.50
2019-02-05T00:24:14.007Z,-4.10
2019-02-05T00:26:44.255Z,-4.00
2019-02-05T00:29:14.792Z,-4.00
2019-02-05T00:31:44.995Z,-3.90
2019-02-05T00:34:15.199Z,-3.70
2019-02-05T00:36:45.313Z,-3.50
2019-02-05T00:39:15.687Z,-3.40
2019-02-05T00:41:45.962Z,-3.40
2019-02-05T00:44:16.707Z,-3.30
2019-02-05T00:46:46.926Z,-3.20
2019-02-05T00:49:17.134Z,-3.10
2019-02-05T00:51:47.298Z,-3.10
2019-02-05T00:54:17.685Z,-3.10
2019-02-05T00:56:48.022Z,-3.10
2019-02-05T00:59:18.079Z,-3.00
2019-02-05T01:01:48.169Z,-3.10
2019-02-05T01:04:19.597Z,-3.00
2019-02-05T01:06:49.750Z,-3.10
2019-02-05T01:09:19.881Z,-3.10
2019-02-05T01:11:53.103Z,-2.90
2019-02-05T01:14:23.531Z,-2.90
2019-02-05T01:16:53.657Z,-2.90
2019-02-05T01:19:23.950Z,-2.90
2019-02-05T01:21:54.284Z,-3.10
2019-02-05T01:24:24.788Z,-3.20
2019-02-05T01:26:54.822Z,-3.10
2019-02-05T01:29:25.032Z,-3.00
2019-02-05T01:31:55.420Z,-2.90
2019-02-05T01:34:25.721Z,-2.90
2019-02-05T01:36:55.866Z,-2.80
2019-02-05T01:39:25.968Z,-2.80
2019-02-05T01:41:56.494Z,-2.80
2019-02-05T01:44:26.643Z,-2.80
2019-02-05T01:46:56.722Z,-2.80
2019-02-05T01:49:26.811Z,-2.80
2019-02-05T01:51:57.527Z,-2.80
2019-02-05T01:54:27.731Z,-2.70
2019-02-05T01:56:57.960Z,-2.60
2019-02-05T01:59:27.999Z,-2.70
2019-02-05T02:01:58.146Z,-2.70
2019-02-05T02:04:28.558Z,-2.70
2019-02-05T02:06:58.758Z,-2.80
2019-02-05T02:09:29.077Z,-2.80
2019-02-05T02:11:59.345Z,-2.70
2019-02-05T02:14:29.711Z,-2.70
2019-02-05T02:16:59.824Z,-2.60
2019-02-05T02:19:30.636Z,-2.70
2019-02-05T02:22:00.712Z,-2.70
2019-02-05T02:24:31.078Z,-2.70
2019-02-05T02:27:01.219Z,-2.60
2019-02-05T02:29:31.680Z,-2.60
2019-02-05T02:32:01.923Z,-2.70
2019-02-05T02:34:32.153Z,-2.60
2019-02-05T02:37:02.301Z,-2.60
2019-02-05T02:39:32.646Z,-2.60
2019-02-05T02:42:02.846Z,-2.60
2019-02-05T02:44:32.934Z,-2.60
2019-02-05T02:47:03.644Z,-2.60
2019-02-05T02:49:33.955Z,-2.60
2019-02-05T02:52:04.231Z,-2.60
2019-02-05T02:54:34.713Z,-2.50
2019-02-05T02:57:05.143Z,-2.50
2019-02-05T02:59:35.289Z,-2.50
2019-02-05T03:02:05.380Z,-2.50
2019-02-05T03:04:35.756Z,-2.50
2019-02-05T03:07:05.911Z,-2.60
2019-02-05T03:09:36.071Z,-2.60
2019-02-05T03:12:06.304Z,-2.60
2019-02-05T03:14:36.494Z,-2.50
2019-02-05T03:17:06.961Z,-2.50
2019-02-05T03:19:37.100Z,-2.50
2019-02-05T03:22:07.275Z,-2.60
2019-02-05T03:24:37.494Z,-2.60
2019-02-05T03:27:17.166Z,-2.70
2019-02-05T03:29:40.899Z,-2.70
2019-02-05T03:32:11.438Z,-2.70
2019-02-05T03:34:41.844Z,-2.80
2019-02-05T03:37:12.089Z,-2.70
2019-02-05T03:39:42.240Z,-2.70
2019-02-05T03:42:12.322Z,-2.80
2019-02-05T03:44:42.451Z,-2.90
2019-02-05T03:47:13.329Z,-2.80
2019-02-05T03:49:43.581Z,-2.80
2019-02-05T03:52:37.146Z,-2.90
2019-02-05T03:56:00.035Z,-3.00
2019-02-05T03:58:59.657Z,-2.90
2019-02-05T04:02:23.177Z,-2.90
2019-02-05T04:05:37.255Z,-2.90
2019-02-05T04:08:42.952Z,-2.90
2019-02-05T04:11:45.493Z,-2.80
2019-02-05T04:14:59.854Z,-2.90
2019-02-05T04:18:23.044Z,-2.80
2019-02-05T04:21:34.858Z,-2.80
2019-02-05T04:24:47.559Z,-2.70
2019-02-05T04:27:44.956Z,-2.70
2019-02-05T04:30:37.080Z,-2.60
2019-02-05T04:34:15.344Z,-2.60
2019-02-05T04:37:33.404Z,-2.50
2019-02-05T04:40:45.298Z,-2.60
2019-02-05T04:43:45.105Z,-2.50
2019-02-05T04:46:46.125Z,-2.60
2019-02-05T04:49:46.939Z,-2.80
2019-02-05T04:52:56.122Z,-2.80
2019-02-05T04:55:42.631Z,-2.80
2019-02-05T04:58:51.585Z,-2.90
2019-02-05T05:01:48.471Z,-2.80
2019-02-05T05:04:47.883Z,-2.80
2019-02-05T05:07:45.178Z,-2.80
2019-02-05T05:10:15.529Z,-2.80
2019-02-05T05:12:45.736Z,-2.80
2019-02-05T05:15:15.769Z,-2.70
2019-02-05T05:17:45.921Z,-2.80
2019-02-05T05:20:16.347Z,-2.70
2019-02-05T05:22:48.368Z,-2.70
2019-02-05T05:25:21.113Z,-2.80
2019-02-05T05:28:09.427Z,-2.80
2019-02-05T05:30:28.975Z,-2.80
2019-02-05T05:32:59.172Z,-2.80
2019-02-05T05:35:40.656Z,-2.80
2019-02-05T05:38:01.902Z,-2.80
2019-02-05T05:40:32.062Z,-2.80
2019-02-05T05:43:02.671Z,-2.80
2019-02-05T05:45:32.892Z,-2.90
2019-02-05T05:48:03.028Z,-3.00
2019-02-05T05:50:33.865Z,-3.00
2019-02-05T05:53:04.131Z,-3.10
2019-02-05T05:55:34.693Z,-3.10
2019-02-05T05:58:05.025Z,-3.10
2019-02-05T06:00:35.216Z,-3.30
2019-02-05T06:03:05.663Z,-3.30
2019-02-05T06:05:35.986Z,-3.40
2019-02-05T06:08:06.159Z,-3.40
2019-02-05T06:10:38.005Z,-3.50
2019-02-05T06:13:08.145Z,-3.60
2019-02-05T06:15:38.678Z,-3.60
2019-02-05T06:18:08.896Z,-3.50
2019-02-05T06:20:39.274Z,-3.40
2019-02-05T06:23:09.678Z,-3.30
2019-02-05T06:25:39.851Z,-3.50
2019-02-05T06:28:10.022Z,-3.50
2019-02-05T06:30:40.404Z,-3.60
2019-02-05T06:33:10.915Z,-3.60
2019-02-05T06:35:41.102Z,-3.50
2019-02-05T06:38:11.206Z,-3.60
2019-02-05T06:40:41.324Z,-3.60
2019-02-05T06:43:11.676Z,-3.60
2019-02-05T06:45:41.839Z,-3.60
2019-02-05T06:48:13.285Z,-3.60
2019-02-05T06:50:43.690Z,-3.60
2019-02-05T06:53:13.910Z,-3.60
2019-02-05T06:55:44.162Z,-3.60
2019-02-05T06:58:14.310Z,-3.80
2019-02-05T07:00:44.372Z,-3.80
2019-02-05T07:03:14.448Z,-3.80
2019-02-05T07:05:44.883Z,-3.90
2019-02-05T07:08:15.022Z,-3.80
2019-02-05T07:10:45.237Z,-3.80
2019-02-05T07:13:15.432Z,-3.80
2019-02-05T07:15:45.893Z,-3.90
2019-02-05T07:18:16.326Z,-4.00
2019-02-05T07:20:46.399Z,-4.00
2019-02-05T07:23:16.668Z,-4.00
2019-02-05T07:25:47.057Z,-4.00
2019-02-05T07:28:17.196Z,-4.00
2019-02-05T07:30:47.411Z,-4.00
2019-02-05T07:33:18.109Z,-3.90
2019-02-05T07:35:48.324Z,-4.00
2019-02-05T07:38:18.508Z,-4.00
2019-02-05T07:40:49.018Z,-4.00
2019-02-05T07:43:19.184Z,-4.10
2019-02-05T07:45:49.360Z,-4.10
2019-02-05T07:48:19.564Z,-4.00
2019-02-05T07:50:50.171Z,-4.00
2019-02-05T07:53:21.540Z,-3.90
2019-02-05T07:55:52.886Z,-3.90
2019-02-05T07:58:23.452Z,-3.70
2019-02-05T08:00:54.683Z,-3.50
2019-02-05T08:03:25.127Z,-3.30
2019-02-05T08:05:55.667Z,-3.20
2019-02-05T08:08:26.162Z,-3.00
2019-02-05T08:10:56.398Z,-2.90
2019-02-05T08:13:26.596Z,-2.70
2019-02-05T08:15:56.830Z,-2.70
2019-02-05T08:18:27.268Z,-2.60
2019-02-05T08:20:57.708Z,-2.60
2019-02-05T08:23:28.276Z,-2.50
2019-02-05T08:25:58.439Z,-2.60
2019-02-05T08:28:28.545Z,-2.60
2019-02-05T08:30:58.736Z,-2.40
2019-02-05T08:33:29.192Z,-2.40
2019-02-05T08:35:59.472Z,-2.30
2019-02-05T08:38:29.899Z,-2.20
2019-02-05T08:41:00.318Z,-2.10
2019-02-05T08:43:30.727Z,-2.10
2019-02-05T08:46:01.163Z,-2.00
2019-02-05T08:48:31.449Z,-1.80
2019-02-05T08:51:02.949Z,-1.80
2019-02-05T08:53:33.494Z,-1.60
2019-02-05T08:56:04.032Z,-1.50
2019-02-05T08:58:34.529Z,-1.40
2019-02-05T09:01:05.564Z,-1.30
2019-02-05T09:03:35.723Z,-1.10
2019-02-05T09:06:05.956Z,-1.20
2019-02-05T09:08:36.593Z,-1.00
2019-02-05T09:11:06.875Z,-1.00
2019-02-05T09:13:37.284Z,-1.00
2019-02-05T09:16:07.590Z,-1.00
2019-02-05T09:18:37.770Z,-1.00
2019-02-05T09:21:07.931Z,-1.10
2019-02-05T09:23:38.603Z,-1.70
2019-02-05T09:26:08.767Z,-1.80
2019-02-05T09:28:38.931Z,-1.50
2019-02-05T09:31:09.459Z,-1.40
2019-02-05T09:33:39.779Z,-1.50
2019-02-05T09:36:10.053Z,-1.30
2019-02-05T09:38:40.637Z,-1.50
2019-02-05T09:41:10.829Z,-1.10
2019-02-05T09:43:41.007Z,-0.90
2019-02-05T09:46:11.444Z,-0.80
2019-02-05T09:48:41.697Z,-0.40
2019-02-05T09:51:11.914Z,-0.30
2019-02-05T09:53:42.672Z,-0.50
2019-02-05T09:56:12.868Z,-0.80
2019-02-05T09:58:43.024Z,-0.50
2019-02-05T10:01:13.239Z,-0.60
2019-02-05T10:03:43.623Z,-0.70
2019-02-05T10:06:13.770Z,-0.50
2019-02-05T10:08:44.146Z,-0.20
2019-02-05T10:11:14.611Z,-0.70
2019-02-05T10:13:44.810Z,-0.90
2019-02-05T10:16:14.925Z,-0.90
2019-02-05T10:18:46.003Z,-0.20
2019-02-05T10:21:16.483Z,-0.20
2019-02-05T10:23:46.820Z,0.40
2019-02-05T10:26:17.040Z,0.60
2019-02-05T10:28:47.180Z,0.40
2019-02-05T10:31:17.640Z,0.60
2019-02-05T10:33:54.985Z,0.20
2019-02-05T10:36:19.997Z,0.90
2019-02-05T10:38:50.342Z,1.00
2019-02-05T10:41:21.403Z,1.10
2019-02-05T10:43:51.904Z,1.00
2019-02-05T10:46:22.187Z,0.80
2019-02-05T10:48:52.359Z,1.00
2019-02-05T10:51:22.539Z,0.20
2019-02-05T10:53:53.113Z,-0.10
2019-02-05T10:56:23.287Z,0.60
2019-02-05T10:58:53.523Z,0.70
2019-02-05T11:01:25.286Z,0.90
2019-02-05T11:03:55.374Z,1.10
2019-02-05T11:06:25.831Z,1.40
2019-02-05T11:08:56.255Z,0.90
2019-02-05T11:11:26.363Z,0.80
2019-02-05T11:13:56.581Z,1.50
2019-02-05T11:16:29.343Z,1.80
2019-02-05T11:18:59.481Z,2.00
2019-02-05T11:21:29.655Z,1.90
2019-02-05T11:24:00.025Z,1.80
2019-02-05T11:26:30.311Z,1.80
2019-02-05T11:29:00.507Z,1.20
2019-02-05T11:31:30.810Z,1.20
2019-02-05T11:34:01.107Z,1.20
2019-02-05T11:36:31.454Z,0.80
2019-02-05T11:39:02.064Z,0.90
2019-02-05T11:41:33.769Z,1.20
2019-02-05T11:44:04.166Z,1.00
2019-02-05T11:46:34.450Z,0.70
2019-02-05T11:49:05.062Z,0.70
2019-02-05T11:51:35.467Z,0.90
2019-02-05T11:54:05.998Z,1.00
2019-02-05T11:56:36.298Z,0.80
2019-02-05T11:59:07.454Z,1.60
2019-02-05T12:01:39.223Z,1.20
2019-02-05T12:04:09.559Z,0.70
2019-02-05T12:06:39.777Z,0.80
2019-02-05T12:09:22.370Z,1.60
2019-02-05T12:11:52.511Z,2.70
2019-02-05T12:14:22.748Z,3.10
2019-02-05T12:16:54.347Z,2.00
2019-02-05T12:19:24.572Z,1.30
2019-02-05T12:21:54.924Z,1.70
2019-02-05T12:24:25.374Z,1.90
2019-02-05T12:26:55.520Z,1.70
2019-02-05T12:29:25.747Z,1.60
2019-02-05T12:31:57.675Z,1.70
2019-02-05T12:34:27.857Z,1.80
2019-02-05T12:36:58.357Z,2.00
2019-02-05T12:39:28.619Z,2.50
2019-02-05T12:41:58.818Z,2.70
2019-02-05T12:44:28.989Z,2.50
2019-02-05T12:46:59.431Z,2.70
2019-02-05T12:49:29.697Z,2.30
2019-02-05T12:51:59.949Z,2.70
2019-02-05T12:54:30.660Z,2.70
2019-02-05T12:57:00.827Z,2.80
2019-02-05T12:59:32.922Z,2.60
2019-02-05T13:02:03.109Z,2.80
2019-02-05T13:04:33.845Z,3.00
2019-02-05T13:07:04.547Z,3.40
2019-02-05T13:09:34.658Z,3.60
2019-02-05T13:12:05.966Z,3.40
2019-02-05T13:14:36.103Z,3.80
2019-02-05T13:17:06.409Z,3.70
2019-02-05T13:19:36.714Z,4.20
2019-02-05T13:22:07.074Z,3.60
2019-02-05T13:24:37.278Z,3.40
2019-02-05T13:27:07.725Z,3.00
2019-02-05T13:29:37.954Z,3.50
2019-02-05T13:32:08.653Z,3.20
2019-02-05T13:34:38.887Z,3.20
2019-02-05T13:37:09.108Z,2.50
2019-02-05T13:39:39.245Z,2.50
2019-02-05T13:42:09.305Z,2.40
2019-02-05T13:44:41.149Z,2.90
2019-02-05T13:47:11.358Z,2.80
2019-02-05T13:49:41.764Z,1.90
2019-02-05T13:52:11.931Z,1.00
2019-02-05T13:54:42.044Z,0.00
2019-02-05T13:57:12.167Z,-0.50
2019-02-05T13:59:42.684Z,-0.60
2019-02-05T14:02:12.872Z,-0.70
2019-02-05T14:04:42.990Z,-0.80
2019-02-05T14:07:13.102Z,-0.70
2019-02-05T14:09:43.205Z,-0.80
2019-02-05T14:12:13.307Z,-0.90
2019-02-05T14:15:02.723Z,-0.90
2019-02-05T14:17:34.084Z,-0.80
2019-02-05T14:20:05.511Z,-1.20
2019-02-05T14:22:36.026Z,-1.20
2019-02-05T14:25:07.605Z,-1.30
2019-02-05T14:27:38.002Z,-1.30
2019-02-05T14:30:11.614Z,-1.60
2019-02-05T14:32:41.925Z,-1.80
2019-02-05T14:35:12.003Z,-1.90
2019-02-05T14:37:42.491Z,-1.90
2019-02-05T14:40:16.007Z,-2.00
2019-02-05T14:42:46.208Z,-2.00
2019-02-05T14:45:16.228Z,-2.00
2019-02-05T14:47:47.335Z,-1.90
2019-02-05T14:50:21.174Z,-2.00
2019-02-05T14:52:51.446Z,-2.00
2019-02-05T14:55:23.012Z,-2.00
2019-02-05T14:57:53.381Z,-1.80
2019-02-05T15:00:31.243Z,-1.40
2019-02-05T15:03:02.293Z,-1.30
2019-02-05T15:05:32.488Z,-1.90
2019-02-05T15:08:05.767Z,-1.90
2019-02-05T15:10:35.197Z,-1.80
2019-02-05T15:13:16.004Z,-1.90
2019-02-05T15:15:46.367Z,-2.10
2019-02-05T15:18:18.731Z,-2.10
2019-02-05T15:20:50.433Z,-2.00
2019-02-05T15:23:21.442Z,-2.00
2019-02-05T15:25:52.150Z,-2.10
2019-02-05T15:28:23.378Z,-2.30
2019-02-05T15:30:53.483Z,-2.30
2019-02-05T15:33:50.097Z,-2.30
2019-02-05T15:36:25.579Z,-2.10
2019-02-05T15:38:56.101Z,-2.00
2019-02-05T15:41:26.394Z,-2.00
2019-02-05T15:43:56.444Z,-1.80
2019-02-05T15:46:26.644Z,-1.80
2019-02-05T15:48:59.165Z,-1.60
2019-02-05T15:51:29.299Z,-1.50
2019-02-05T15:53:59.555Z,-1.60
2019-02-05T15:56:29.627Z,-1.50
2019-02-05T15:59:00.160Z,-1.80
2019-02-05T16:01:30.582Z,-1.70
2019-02-05T16:04:01.149Z,-1.90
2019-02-05T16:06:45.690Z,-2.10
2019-02-05T16:09:16.241Z,-1.90
2019-02-05T16:11:46.336Z,-1.80
2019-02-05T16:14:16.517Z,-1.90
2019-02-05T16:16:46.710Z,-2.10
2019-02-05T16:19:17.127Z,-2.10
2019-02-05T16:21:47.483Z,-2.30
2019-02-05T16:24:17.762Z,-2.20
2019-02-05T16:26:48.406Z,-2.30
2019-02-05T16:29:18.661Z,-2.20
2019-02-05T16:31:48.789Z,-2.10
2019-02-05T16:34:19.228Z,-2.00
2019-02-05T16:36:49.422Z,-2.00
2019-02-05T16:39:19.659Z,-1.90
2019-02-05T16:41:49.950Z,-1.90
2019-02-05T16:44:20.330Z,-1.80
2019-02-05T16:46:50.627Z,-1.80
2019-02-05T16:49:22.407Z,-1.70
2019-02-05T16:51:53.830Z,-1.80
2019-02-05T16:54:25.773Z,-1.70
2019-02-05T16:56:57.571Z,-1.80
2019-02-05T16:59:27.712Z,-1.90
2019-02-05T17:01:57.994Z,-2.10
2019-02-05T17:04:28.506Z,-2.20
2019-02-05T17:06:58.721Z,-2.20
2019-02-05T17:09:28.982Z,-2.10
2019-02-05T17:11:59.457Z,-2.10
2019-02-05T17:14:29.760Z,-2.00
2019-02-05T17:17:00.022Z,-2.00
2019-02-05T17:19:31.908Z,-2.10
2019-02-05T17:22:02.453Z,-2.10
2019-02-05T17:24:32.882Z,-2.20
2019-02-05T17:27:03.171Z,-2.30
2019-02-05T17:29:33.670Z,-2.30
2019-02-05T17:32:03.846Z,-2.30
2019-02-05T17:34:34.140Z,-2.40
2019-02-05T17:37:05.505Z,-2.40
2019-02-05T17:39:35.832Z,-2.50
2019-02-05T17:42:06.063Z,-2.50
2019-02-05T17:44:36.536Z,-2.40
2019-02-05T17:47:06.750Z,-2.30
2019-02-05T17:49:37.600Z,-2.30
2019-02-05T17:52:07.707Z,-2.20
2019-02-05T17:54:37.994Z,-2.30
2019-02-05T17:57:08.489Z,-2.50
2019-02-05T17:59:38.902Z,-2.50
2019-02-05T18:02:09.511Z,-2.50
2019-02-05T18:04:39.863Z,-2.70
2019-02-05T18:07:10.142Z,-2.70
2019-02-05T18:09:40.673Z,-2.70
2019-02-05T18:12:10.797Z,-2.80
2019-02-05T18:14:40.946Z,-2.80
2019-02-05T18:17:11.570Z,-2.70
2019-02-05T18:19:42.051Z,-2.70
2019-02-05T18:22:12.383Z,-2.60
2019-02-05T18:24:43.693Z,-2.60
2019-02-05T18:27:13.798Z,-2.60
2019-02-05T18:29:44.070Z,-2.50
2019-02-05T18:32:14.567Z,-2.40
2019-02-05T18:34:44.883Z,-2.40
2019-02-05T18:37:15.014Z,-2.40
2019-02-05T18:39:45.998Z,-2.40
2019-02-05T18:42:16.299Z,-2.50
2019-02-05T18:44:50.190Z,-2.40
2019-02-05T18:47:20.297Z,-2.30
2019-02-05T18:49:51.327Z,-2.40
2019-02-05T18:52:21.763Z,-2.30
2019-02-05T18:54:52.009Z,-2.30
2019-02-05T18:57:24.391Z,-2.30
2019-02-05T18:59:54.987Z,-2.40
2019-02-05T19:02:25.250Z,-2.30
2019-02-05T19:04:55.785Z,-2.30
2019-02-05T19:07:26.177Z,-2.30
2019-02-05T19:09:56.411Z,-2.30
2019-02-05T19:12:26.915Z,-2.20
2019-02-05T19:14:57.182Z,-2.30
2019-02-05T19:17:27.402Z,-2.30
2019-02-05T19:19:57.897Z,-2.40
2019-02-05T19:22:28.120Z,-2.40
2019-02-05T19:25:08.623Z,-2.40
2019-02-05T19:27:39.137Z,-2.40
2019-02-05T19:30:10.993Z,-2.40
2019-02-05T19:32:41.172Z,-2.40
2019-02-05T19:35:12.490Z,-2.50
2019-02-05T19:37:44.020Z,-2.50
2019-02-05T19:40:14.327Z,-2.60
2019-02-05T19:42:46.106Z,-2.60
2019-02-05T19:45:34.086Z,-2.60
2019-02-05T19:48:05.695Z,-2.50
2019-02-05T19:50:36.223Z,-2.40
2019-02-05T19:53:06.525Z,-2.40
2019-02-05T19:55:37.076Z,-2.40
2019-02-05T19:58:07.461Z,-2.40
2019-02-05T20:00:37.647Z,-2.30
2019-02-05T20:03:08.225Z,-2.00
2019-02-05T20:05:38.439Z,-1.70
2019-02-05T20:08:08.713Z,-1.70
2019-02-05T20:10:39.292Z,-2.00
2019-02-05T20:13:10.941Z,-2.00
2019-02-05T20:15:41.273Z,-2.10
2019-02-05T20:18:12.551Z,-2.10
2019-02-05T20:20:44.810Z,-2.10
2019-02-05T20:23:16.658Z,-2.10
2019-02-05T20:25:47.126Z,-2.10
2019-02-05T20:28:19.336Z,-2.10
2019-02-05T20:30:49.512Z,-2.10
2019-02-05T20:33:20.188Z,-2.00
2019-02-05T20:35:50.417Z,-2.00
2019-02-05T20:38:20.633Z,-2.10
2019-02-05T20:40:51.119Z,-2.00
2019-02-05T20:43:21.335Z,-2.10
2019-02-05T20:45:51.555Z,-2.20
2019-02-05T20:48:22.397Z,-2.00
2019-02-05T20:50:52.638Z,-2.10
2019-02-05T20:53:22.771Z,-2.00
2019-02-05T20:55:53.290Z,-2.00
2019-02-05T20:58:24.556Z,-1.90
2019-02-05T21:00:54.753Z,-1.90
2019-02-05T21:03:25.493Z,-2.00
2019-02-05T21:05:55.682Z,-2.00
2019-02-05T21:08:25.829Z,-2.10
2019-02-05T21:10:56.271Z,-2.10
2019-02-05T21:13:26.562Z,-2.10
2019-02-05T21:15:57.731Z,-2.00
2019-02-05T21:18:27.916Z,-2.00
2019-02-05T21:20:58.487Z,-2.30
2019-02-05T21:23:28.730Z,-2.10
2019-02-05T21:25:58.873Z,-2.20
2019-02-05T21:28:29.074Z,-2.00
2019-02-05T21:30:59.480Z,-2.00
2019-02-05T21:33:29.909Z,-2.00
2019-02-05T21:36:00.404Z,-2.00
2019-02-05T21:38:30.740Z,-1.90
2019-02-05T21:41:00.999Z,-2.00
2019-02-05T21:43:31.469Z,-2.00
2019-02-05T21:46:01.654Z,-2.00
2019-02-05T21:48:31.926Z,-2.10
2019-02-05T21:51:02.536Z,-2.20
2019-02-05T21:53:32.824Z,-2.10
2019-02-05T21:56:03.014Z,-2.10
2019-02-05T21:58:33.468Z,-2.10
2019-02-05T22:01:05.811Z,-2.20
2019-02-05T22:03:36.009Z,-2.10
2019-02-05T22:06:06.636Z,-2.10
2019-02-05T22:08:36.862Z,-2.00
2019-02-05T22:11:07.035Z,-2.10
2019-02-05T22:13:37.516Z,-2.10
2019-02-05T22:16:07.771Z,-2.10
2019-02-05T22:18:38.205Z,-2.20
2019-02-05T22:21:08.681Z,-2.00
2019-02-05T22:23:38.831Z,-2.10
2019-02-05T22:26:09.123Z,-2.10
2019-02-05T22:28:39.647Z,-2.20
2019-02-05T22:31:10.154Z,-2.30
2019-02-05T22:33:40.687Z,-2.20
2019-02-05T22:36:11.268Z,-2.30
2019-02-05T22:38:43.160Z,-2.20
2019-02-05T22:41:13.754Z,-2.00
2019-02-05T22:43:43.982Z,-2.00
2019-02-05T22:46:14.169Z,-2.20
2019-02-05T22:48:44.318Z,-2.30
2019-02-05T22:51:14.710Z,-2.30
2019-02-05T22:53:44.928Z,-2.20
2019-02-05T22:56:15.154Z,-2.20
2019-02-05T22:58:45.892Z,-2.20
2019-02-05T23:01:39.676Z,-2.20
2019-02-05T23:04:30.922Z,-2.30
2019-02-05T23:07:09.287Z,-2.40
2019-02-05T23:09:53.423Z,-2.40
2019-02-05T23:12:34.412Z,-2.50
2019-02-05T23:15:16.300Z,-2.50
2019-02-05T23:17:46.364Z,-2.80
2019-02-05T23:20:19.382Z,-2.80
2019-02-05T23:22:49.954Z,-2.70
2019-02-05T23:25:20.099Z,-2.60
2019-02-05T23:27:50.383Z,-2.70
2019-02-05T23:30:25.724Z,-2.80
2019-02-05T23:32:56.126Z,-2.80
2019-02-05T23:35:26.975Z,-2.80
2019-02-05T23:37:57.270Z,-2.90
2019-02-05T23:40:27.395Z,-2.70
2019-02-05T23:42:57.473Z,-2.70
2019-02-05T23:45:27.812Z,-2.90
2019-02-05T23:47:58.056Z,-2.90
2019-02-05T23:50:28.502Z,-3.00
2019-02-05T23:52:58.968Z,-3.10
2019-02-05T23:55:29.230Z,-3.30
2019-02-05T23:57:59.533Z,-3.30
